Kingmont, WV (26578)

12:28 PM EDT on October 01, 2014 (GMT -0400)
Pleasant Valley Station | Change Station
CLOSE
Current Station
Personal Weather Station
Location: Fairmont, WV
Elevation: 1047 ft
Nearby Weather Stations

Elev 1047 ft 39.44 °N, 80.17 °W | Updated 6 minutes ago

Overcast
Overcast
58.0 °F
Feels Like 58.0 °F
N
0.0
Wind Variable Wind from ESE
Gusts 3.0 mph

Today
High -- | Low -- °F
--% Chance of Precip.
Yesterday
High -- | Low -- °F
Precip. -- in
7:16 AM 7:03 PM
Waxing Crescent, 49% visible
Pressure 30.04 in
Visibility 5.0 miles
Clouds Overcast 400 ft
Dew Point 58 °F
Humidity 100%
Rainfall 0.00 in
Snow Depth Not available.
UV 2 out of 12
Pollen 2.90 out of 12
Air Quality Not available.
Flu Activity Not available.
METAR KCKB 011553Z 00000KT 5SM BR OVC004 15/13 A3006 RMK AO2 SLP170 T01500133

More Conditions Fewer Conditions

Pressure 30.04 in
Visibility 5.0 miles
Clouds Overcast 400 ft
Dew Point 58 °F
Humidity 100%
Rainfall 0.00 in
Snow Depth Not available.
UV 2 out of 12
Pollen 2.90 out of 12
Air Quality Not available.
Flu Activity Not available.
METAR KCKB 011553Z 00000KT 5SM BR OVC004 15/13 A3006 RMK AO2 SLP170 T01500133

More Conditions Fewer Conditions

10-Day Weather Forecast

Almanac

Astronomy

Oct. 01, 2014 Rise Set
Actual Time 7:16 AM EDT 7:03 PM EDT
Civil Twilight 6:50 AM EDT 7:29 PM EDT
Nautical Twilight 6:18 AM EDT 8:01 PM EDT
Astronomical Twilight 5:47 AM EDT 8:32 PM EDT
Moon 2:15 PM EDT No Moon Set
Length of Visible Light 12h 39m
Length of Day
11h 46m
Tomorrow will be 2m 34s shorter.
Waxing Crescent, 49% of the Moon is Illuminated
Today
Waxing Crescent
Oct 1
First Quarter
Oct 8
Full
Oct 15
Last Quarter
Oct 23
New

Today's Extremes

State Highs State Lows

Community

WunderPhotos

Upload Photos

1,757,980 photos uploaded!

WunderBlogs® & News

Nearby

Snow Depth

Station Depth Elevation
No new snow has been reported.

Earthquake Activity

City Distance Mag. Time & Date
No recent earthquake activity has been reported nearby.
Minimum magnitude displayed is 2.5.

Coastal Water Temperatures

Place Temperature
No Stations Reporting

Nearby Weather Stations